Blue Goose, West Virginia
Current Conditions -  °F | °C
As of 4:53 PM on Wednesday 22 Oct 2014 (Local Time) from KPKB Reporting Station
Overcast Overcast  
Wind Chill: 51°   Ceiling: 2400
Heat Index: 51°   Visibility: 10mi
Dew Point: 41°   Wind: 7mph
Humidity: 68%   Direction: 330°NNW
Pressure: 30.23"   Gusts: NA
Location:  38.9676°N, 81.429°W
Report Text: KPKB 222053Z 33006KT 10SM OVC024 11/05 A3023 RMK AO2 SLP238 T01060050 53003
Loading
Personal Weather Stations






























Interactive Weather Map
Tropical Storm Tracking
New forecast layout! Learn more

10-Day Weather Forecast

Advertisements
Track Severe Weather on mobile